Time;durP1;ratioP1;P1;durP2;ratioP2;P2;SDS_P1;SDS_P2;PMS_P1;PMS_P2;Temp;Humidity;BMP_temperature;BMP_pressure;BME280_temperature;BME280_humidity;BME280_pressure;Samples;Min_cycle;Max_cycle;Signal;HPM_P1;HPM_P2
2022/08/01 00:01:31;;;;;;;4.85;4.47;;;20.10;99.90;;;-141.84;67.78;20846.41;5011062;28;20357;-77
2022/08/01 00:03:59;;;;;;;4.45;4.05;;;20.10;99.90;;;-141.84;67.41;20811.84;5011158;28;20239;-77
2022/08/01 00:06:28;;;;;;;6.45;4.40;;;20.20;99.90;;;-141.84;67.53;20817.94;5011591;28;20226;-75
2022/08/01 00:08:56;;;;;;;4.50;4.20;;;20.20;99.90;;;-141.84;67.21;20811.84;5011696;28;20234;-75
2022/08/01 00:11:26;;;;;;;4.63;4.15;;;20.20;99.90;;;-141.84;67.47;20793.56;5015433;28;20306;-76
2022/08/01 00:13:54;;;;;;;4.82;4.43;;;20.20;99.90;;;-141.84;67.54;20765.09;5010472;28;20223;-76
2022/08/01 00:16:23;;;;;;;5.18;4.65;;;20.20;99.90;;;-141.84;67.47;20777.28;5011581;28;20814;-76
2022/08/01 00:18:52;;;;;;;5.15;4.63;;;20.10;99.90;;;-141.84;67.87;20779.31;5011043;28;20540;-76
2022/08/01 00:21:20;;;;;;;5.03;4.60;;;20.20;99.90;;;-141.84;68.03;20756.97;5011163;28;20771;-78
2022/08/01 00:23:48;;;;;;;4.78;4.38;;;20.20;99.90;;;-141.84;68.04;20817.94;5011120;28;20249;-76
2022/08/01 00:26:16;;;;;;;4.60;4.30;;;20.20;99.90;;;-141.84;68.05;20781.38;5021735;28;20734;-77
2022/08/01 00:28:46;;;;;;;5.10;4.70;;;20.20;99.90;;;-141.84;67.82;20789.50;5013268;28;20284;-76
2022/08/01 00:31:14;;;;;;;4.90;4.50;;;20.20;99.90;;;-141.84;67.05;20773.22;5010679;28;20721;-76
2022/08/01 00:33:42;;;;;;;4.65;4.25;;;20.20;99.90;;;-141.84;67.17;20815.91;5010838;28;20226;-75
2022/08/01 00:36:11;;;;;;;4.82;4.35;;;20.20;99.90;;;-141.84;66.82;20777.28;5011044;28;20219;-76
2022/08/01 00:38:39;;;;;;;4.60;4.20;;;20.20;99.90;;;-141.84;67.08;20750.88;5011082;28;20203;-75
2022/08/01 00:41:07;;;;;;;4.80;4.40;;;20.20;99.90;;;-141.84;66.89;20781.38;5011520;28;20209;-76
2022/08/01 00:43:35;;;;;;;4.93;4.43;;;20.20;99.90;;;-141.84;66.36;20815.91;5010755;28;20709;-75
2022/08/01 00:46:05;;;;;;;5.10;4.60;;;20.30;99.90;;;-141.84;66.56;20811.84;5010796;28;20230;-76
2022/08/01 00:48:33;;;;;;;4.82;4.43;;;20.30;99.90;;;-141.84;66.74;20765.09;5010350;28;20226;-77
2022/08/01 00:51:01;;;;;;;4.72;4.35;;;20.30;99.90;;;-141.84;67.02;20761.03;5010541;28;20612;-78
2022/08/01 00:53:30;;;;;;;5.10;4.70;;;20.20;99.90;;;-141.84;67.35;20777.28;5011055;28;20202;-78
2022/08/01 00:56:18;;;;;;;5.32;4.82;;;20.10;99.90;;;-141.84;66.48;20789.50;5010579;28;20230;-76
2022/08/01 00:58:47;;;;;;;5.30;4.80;;;20.20;99.90;;;-141.84;67.09;20734.59;5010415;28;20222;-76
2022/08/01 01:01:20;;;;;;;4.53;4.13;;;20.10;99.90;;;-141.84;67.55;20736.63;5010493;28;20227;-78
2022/08/01 01:03:50;;;;;;;5.32;4.82;;;20.10;99.90;;;-141.84;67.96;20746.81;5009826;28;20257;-77
2022/08/01 01:06:42;;;;;;;5.68;5.18;;;20.10;99.90;;;-141.84;68.22;20714.28;5010462;28;20764;-77
2022/08/01 01:09:28;;;;;;;6.18;5.30;;;20.00;99.90;;;-141.84;67.63;20726.47;5010311;28;20242;-76
2022/08/01 01:12:11;;;;;;;5.30;4.90;;;20.00;99.90;;;-141.84;68.23;20732.56;5012132;28;20655;-75
2022/08/01 01:14:46;;;;;;;5.28;4.88;;;19.90;99.90;;;-141.84;68.47;20695.97;5010021;28;20266;-75
2022/08/01 01:17:22;;;;;;;5.53;5.13;;;19.90;99.90;;;-141.84;67.36;20718.34;5010362;28;20186;-75
2022/08/01 01:20:14;;;;;;;6.18;5.57;;;20.00;99.90;;;-141.84;66.60;20771.19;5010040;28;20230;-76
2022/08/01 01:23:23;;;;;;;5.53;5.03;;;20.00;99.90;;;-141.84;67.53;20744.78;5021892;28;20300;-79
2022/08/01 01:26:11;;;;;;;6.13;5.35;;;20.10;99.90;;;-141.84;67.01;20728.50;5022615;28;20591;-76
2022/08/01 01:29:02;;;;;;;5.55;5.05;;;20.10;99.90;;;-141.84;67.02;20730.53;5029792;28;20232;-78
2022/08/01 01:31:37;;;;;;;5.43;4.93;;;20.10;99.90;;;-141.84;67.33;20726.47;5029525;28;20312;-76
2022/08/01 01:34:08;;;;;;;5.68;5.00;;;20.00;99.90;;;-141.84;67.59;20738.66;5029702;28;20308;-78
2022/08/01 01:36:38;;;;;;;9.98;5.00;;;20.00;99.90;;;-141.84;67.30;20720.38;5029834;28;20225;-76
2022/08/01 01:39:07;;;;;;;5.40;4.90;;;20.00;99.90;;;-141.84;67.40;20771.19;5029521;28;20222;-76
2022/08/01 01:41:38;;;;;;;5.38;4.90;;;20.00;99.90;;;-141.84;66.91;20712.25;5029390;28;20692;-76
2022/08/01 01:44:10;;;;;;;5.40;4.90;;;20.10;99.90;;;-141.84;66.75;20714.28;5030094;28;20210;-76
2022/08/01 01:46:40;;;;;;;5.40;4.90;;;20.00;99.90;;;-141.84;65.88;20769.16;5029521;28;20233;-75
2022/08/01 01:49:11;;;;;;;5.45;5.05;;;20.10;99.90;;;-141.84;66.05;20728.50;5029478;28;20232;-76
2022/08/01 01:51:42;;;;;;;5.00;4.60;;;20.20;99.90;;;-141.84;66.07;20775.25;5029759;28;20233;-76
2022/08/01 01:54:35;;;;;;;4.88;4.57;;;20.20;99.90;;;-141.84;66.15;20734.59;5029346;28;20741;-75
2022/08/01 01:57:06;;;;;;;5.35;4.85;;;20.20;99.90;;;-141.84;66.14;20718.34;5029607;28;20224;-77
2022/08/01 01:59:39;;;;;;;5.78;5.28;;;20.10;99.90;;;-141.84;66.07;20779.31;5029146;28;20667;-74
2022/08/01 02:02:10;;;;;;;5.50;5.00;;;20.10;99.90;;;-141.84;65.93;20736.63;5031707;28;20189;-76
2022/08/01 02:04:43;;;;;;;5.47;4.97;;;20.10;99.90;;;-141.84;65.43;20769.16;5016110;28;20250;-77
2022/08/01 02:07:17;;;;;;;6.05;5.43;;;20.20;99.90;;;-141.84;65.70;20756.97;5013747;28;20242;-77
2022/08/01 02:09:49;;;;;;;5.32;4.88;;;20.10;99.90;;;-141.84;65.85;20795.59;5013494;28;20234;-77
2022/08/01 02:12:21;;;;;;;5.90;5.40;;;20.10;99.90;;;-141.84;66.25;20740.69;5005866;28;20228;-74
2022/08/01 02:14:54;;;;;;;6.40;5.35;;;20.10;99.90;;;-141.84;65.30;20771.19;5013481;28;20217;-76
2022/08/01 02:17:26;;;;;;;5.07;4.68;;;20.10;99.90;;;-141.84;66.79;20708.19;5014160;28;20187;-76
2022/08/01 02:19:55;;;;;;;6.30;5.70;;;20.00;99.90;;;-141.84;67.66;20679.72;5012688;28;20317;-78
2022/08/01 02:22:33;;;;;;;6.05;5.47;;;19.90;99.90;;;-141.84;68.16;20643.13;5013677;28;20593;-75
2022/08/01 02:25:10;;;;;;;5.82;5.13;;;19.70;99.90;;;-141.84;67.10;20687.84;5013220;28;20237;-76
2022/08/01 02:27:46;;;;;;;5.47;5.07;;;19.70;99.90;;;-141.84;67.60;20651.25;5013612;28;20226;-79
2022/08/01 02:30:17;;;;;;;5.95;5.40;;;19.70;99.90;;;-141.84;67.66;20663.47;5012987;28;20317;-78
2022/08/01 02:32:52;;;;;;;5.78;5.18;;;19.70;99.90;;;-141.84;67.14;20718.34;5012899;28;20282;-77
2022/08/01 02:35:27;;;;;;;5.03;4.68;;;19.80;99.90;;;-141.84;67.64;20702.09;5013492;28;20187;-76
2022/08/01 02:37:59;;;;;;;5.65;4.80;;;19.70;99.90;;;-141.84;68.17;20675.66;5013143;28;20233;-76
2022/08/01 02:40:30;;;;;;;5.72;5.13;;;19.70;99.90;;;-141.84;68.36;20641.09;5013034;28;20261;-75
2022/08/01 02:43:04;;;;;;;5.50;5.10;;;19.60;99.90;;;-141.84;68.01;20671.59;5013040;28;20226;-76
2022/08/01 02:45:38;;;;;;;5.25;4.78;;;19.60;99.90;;;-141.84;68.49;20616.69;5012824;28;20736;-77
2022/08/01 02:48:12;;;;;;;4.80;4.40;;;19.60;99.90;;;-141.84;69.20;20565.88;5012881;28;20222;-75
2022/08/01 02:50:47;;;;;;;4.80;4.40;;;19.50;99.90;;;-141.84;69.78;20545.56;5013140;28;20185;-76
2022/08/01 02:53:21;;;;;;;6.10;4.82;;;19.50;99.90;;;-141.84;69.41;20571.97;5013709;28;20274;-77
2022/08/01 02:56:10;;;;;;;5.50;5.00;;;19.40;99.90;;;-141.84;69.35;20594.34;5013093;28;20194;-76
2022/08/01 02:58:41;;;;;;;5.35;4.90;;;19.50;99.90;;;-141.84;69.29;20547.59;5013000;28;20618;-78
2022/08/01 03:01:14;;;;;;;5.85;5.35;;;19.50;99.90;;;-141.84;68.08;20630.94;5012678;28;20485;-76
2022/08/01 03:03:43;;;;;;;5.63;5.18;;;19.60;99.90;;;-141.84;68.80;20602.47;5012669;28;20253;-76
2022/08/01 03:06:13;;;;;;;5.80;5.30;;;19.60;99.90;;;-141.84;68.05;20639.06;5012574;28;20238;-80
2022/08/01 03:08:43;;;;;;;5.90;5.30;;;19.60;99.90;;;-141.84;68.27;20620.78;5012662;28;20241;-77
2022/08/01 03:11:14;;;;;;;5.47;5.05;;;19.60;99.90;;;-141.84;68.24;20612.63;5020705;28;20588;-77
2022/08/01 03:13:46;;;;;;;5.28;4.78;;;19.70;99.90;;;-141.84;68.96;20614.66;5012738;28;20226;-76
2022/08/01 03:16:18;;;;;;;5.63;5.00;;;19.60;99.90;;;-141.84;68.58;20661.44;5012513;28;20233;-76
2022/08/01 03:18:49;;;;;;;4.45;4.15;;;19.70;99.90;;;-141.84;68.41;20708.19;5012311;28;20642;-77
2022/08/01 03:21:20;;;;;;;4.70;4.40;;;19.80;99.90;;;-141.84;67.87;20708.19;5012520;28;20330;-76
2022/08/01 03:23:53;;;;;;;5.20;4.70;;;19.70;99.90;;;-141.84;68.49;20643.13;5012581;28;20542;-78
2022/08/01 03:26:23;;;;;;;4.45;4.05;;;19.80;99.90;;;-141.84;68.87;20618.72;5012772;28;20302;-77
2022/08/01 03:28:56;;;;;;;4.47;4.07;;;19.80;99.90;;;-141.84;69.46;20635.00;5012582;28;20228;-75
2022/08/01 03:31:27;;;;;;;4.00;3.70;;;19.70;99.90;;;-141.84;70.27;20578.09;5012225;28;20381;-76
2022/08/01 03:33:55;;;;;;;5.20;4.30;;;19.70;99.90;;;-141.84;70.21;20630.94;5012423;28;20228;-75
2022/08/01 03:36:29;;;;;;;4.47;4.05;;;19.80;99.90;;;-141.84;70.27;20602.47;5012075;28;20414;-76
2022/08/01 03:39:02;;;;;;;4.15;3.85;;;19.80;99.90;;;-141.84;69.78;20667.53;5012024;28;20226;-75
2022/08/01 03:41:38;;;;;;;4.10;3.80;;;19.80;99.90;;;-141.84;69.79;20679.72;5007606;28;20203;-77
2022/08/01 03:44:15;;;;;;;5.15;4.00;;;19.80;99.90;;;-141.84;70.14;20622.81;4992553;28;20211;-76
2022/08/01 03:46:48;;;;;;;4.95;4.15;;;19.80;99.90;;;-141.84;70.84;20616.69;4991691;28;20686;-77
2022/08/01 03:49:23;;;;;;;3.85;3.60;;;19.80;99.90;;;-141.84;71.07;20584.19;4992391;28;20411;-77
2022/08/01 03:51:53;;;;;;;4.32;4.03;;;19.80;99.90;;;-141.84;70.84;20632.97;4992347;28;20315;-76
2022/08/01 03:54:25;;;;;;;3.95;3.65;;;19.80;99.90;;;-141.84;70.95;20620.78;4992035;28;20798;-75
2022/08/01 03:56:54;;;;;;;4.72;3.45;;;19.80;99.90;;;-141.84;71.10;20594.34;4991669;28;20188;-76
2022/08/01 03:59:23;;;;;;;4.70;3.67;;;19.80;99.90;;;-141.84;70.72;20598.41;4992544;28;20294;-76
2022/08/01 04:01:54;;;;;;;3.95;3.65;;;19.80;99.90;;;-141.84;70.34;20624.84;4991543;28;20251;-76
2022/08/01 04:04:23;;;;;;;4.15;3.75;;;19.80;99.90;;;-141.84;70.36;20653.28;5022331;28;20321;-77
2022/08/01 04:06:53;;;;;;;3.50;3.30;;;19.90;99.90;;;-141.84;70.92;20569.94;5031155;28;20705;-75
2022/08/01 04:09:22;;;;;;;3.55;3.22;;;19.80;99.90;;;-141.84;71.34;20614.66;5031468;28;20321;-76
2022/08/01 04:11:51;;;;;;;3.88;3.58;;;19.80;99.90;;;-141.84;71.22;20620.78;5030666;28;20213;-75
2022/08/01 04:14:19;;;;;;;3.63;3.38;;;19.80;99.90;;;-141.84;70.62;20598.41;5031786;28;20368;-76
2022/08/01 04:16:47;;;;;;;3.75;3.40;;;19.90;99.90;;;-141.84;70.67;20649.22;5031196;28;20221;-76
2022/08/01 04:19:17;;;;;;;3.65;3.28;;;19.90;99.90;;;-141.84;70.56;20620.78;5030825;28;20252;-74
2022/08/01 04:21:45;;;;;;;3.45;3.15;;;20.00;99.90;;;-141.84;71.04;20576.03;5030843;28;20236;-76
2022/08/01 04:24:18;;;;;;;3.70;3.40;;;20.00;99.90;;;-141.84;70.28;20626.88;5030481;28;20302;-76
2022/08/01 04:26:51;;;;;;;4.65;3.35;;;20.00;99.90;;;-141.84;70.27;20659.38;5030719;28;20210;-77
2022/08/01 04:29:23;;;;;;;3.20;3.00;;;20.10;99.90;;;-141.84;69.48;20691.91;5031364;28;20186;-76
2022/08/01 04:31:55;;;;;;;3.35;3.05;;;20.20;99.90;;;-141.84;70.03;20649.22;5030207;28;20233;-76
2022/08/01 04:34:31;;;;;;;3.28;3.08;;;20.20;99.90;;;-141.84;69.75;20671.59;5030412;28;20594;-75
2022/08/01 04:37:01;;;;;;;2.97;2.67;;;20.20;99.90;;;-141.84;70.83;20608.56;5030407;28;20237;-75
2022/08/01 04:39:36;;;;;;;3.15;2.60;;;20.20;99.90;;;-141.84;70.85;20596.38;5030444;28;20804;-76
2022/08/01 04:42:18;;;;;;;2.72;2.53;;;20.10;99.90;;;-141.84;70.94;20614.66;5030268;28;20280;-76
2022/08/01 04:44:55;;;;;;;3.15;2.85;;;20.10;99.90;;;-141.84;70.24;20687.84;5030571;28;20291;-75
2022/08/01 04:47:24;;;;;;;3.30;2.85;;;20.20;99.90;;;-141.84;70.30;20614.66;5030621;28;20572;-76
2022/08/01 04:49:56;;;;;;;3.05;2.75;;;20.20;99.90;;;-141.84;70.02;20637.03;5030321;28;20226;-75
2022/08/01 04:52:33;;;;;;;3.00;2.80;;;20.10;99.90;;;-141.84;69.93;20645.16;5030244;28;20233;-75
2022/08/01 04:55:01;;;;;;;3.17;2.88;;;20.20;99.90;;;-141.84;70.31;20606.53;5030323;28;20308;-76
2022/08/01 04:57:30;;;;;;;3.00;2.80;;;20.10;99.90;;;-141.84;71.10;20632.97;5030337;28;20233;-76
2022/08/01 04:59:58;;;;;;;2.88;2.65;;;20.10;99.90;;;-141.84;71.46;20596.38;5030444;28;20659;-76
2022/08/01 05:02:28;;;;;;;2.90;2.70;;;20.10;99.90;;;-141.84;71.90;20600.44;5030312;28;20206;-75
2022/08/01 05:04:58;;;;;;;3.53;2.90;;;20.10;99.90;;;-141.84;71.58;20574.00;5020473;28;20222;-75
2022/08/01 05:07:26;;;;;;;3.00;2.80;;;20.10;99.90;;;-141.84;72.63;20569.94;5029648;28;20229;-78
2022/08/01 05:09:54;;;;;;;3.08;2.80;;;20.10;99.90;;;-141.84;72.78;20618.72;5029859;28;20667;-76
2022/08/01 05:12:22;;;;;;;3.08;2.65;;;20.20;99.90;;;-141.84;72.27;20608.56;5037654;28;20230;-76
2022/08/01 05:14:51;;;;;;;3.15;2.85;;;20.20;99.90;;;-141.84;71.76;20622.81;5029973;28;20198;-75
2022/08/01 05:17:19;;;;;;;2.78;2.58;;;20.30;99.90;;;-141.84;70.93;20641.09;5030502;28;20281;-76
2022/08/01 05:19:47;;;;;;;2.90;2.60;;;20.40;99.90;;;-141.84;70.37;20704.13;5029758;28;20256;-77
2022/08/01 05:22:16;;;;;;;3.85;2.60;;;20.50;99.90;;;-141.84;69.73;20708.19;5029893;28;20304;-75
2022/08/01 05:24:47;;;;;;;2.85;2.65;;;20.60;99.90;;;-141.84;69.04;20712.25;5030676;28;20226;-76
2022/08/01 05:27:17;;;;;;;3.05;2.78;;;20.70;99.90;;;-141.84;68.24;20777.28;5030443;28;20245;-76
2022/08/01 05:29:46;;;;;;;2.58;2.30;;;20.80;99.90;;;-141.84;67.68;20771.19;5030617;28;20202;-76
2022/08/01 05:32:14;;;;;;;3.20;3.00;;;20.90;99.90;;;-141.84;66.69;20846.41;5030202;28;20190;-75
2022/08/01 05:34:42;;;;;;;3.33;3.05;;;21.00;99.90;;;-141.84;66.35;20858.59;5029588;28;20305;-77
2022/08/01 05:37:10;;;;;;;3.95;3.10;;;21.10;99.90;;;-141.84;66.17;20880.97;5029541;28;20235;-75
2022/08/01 05:39:40;;;;;;;3.97;2.60;;;21.40;99.90;;;-141.84;65.99;20899.28;5030607;28;20230;-76
2022/08/01 05:42:08;;;;;;;2.78;2.58;;;21.50;99.90;;;-141.84;66.14;20923.66;5030763;28;20229;-77
2022/08/01 05:44:36;;;;;;;4.07;3.10;;;21.70;99.90;;;-141.84;64.93;20996.84;5029613;28;20199;-77
2022/08/01 05:47:04;;;;;;;2.85;2.65;;;21.80;99.90;;;-141.84;63.40;21070.03;5029831;28;20214;-76
2022/08/01 05:49:32;;;;;;;4.03;2.38;;;22.00;99.90;;;-141.84;64.27;21041.56;5030003;28;20848;-75
2022/08/01 05:52:01;;;;;;;2.63;2.42;;;22.10;99.90;;;-141.84;63.85;21047.69;5030225;28;20309;-76
2022/08/01 05:54:31;;;;;;;2.60;2.40;;;22.30;99.90;;;-141.84;62.95;21135.09;5030439;28;20786;-77
2022/08/01 05:57:01;;;;;;;2.67;2.47;;;22.40;99.90;;;-141.84;62.64;21104.59;5030390;28;20225;-75
2022/08/01 05:59:29;;;;;;;3.40;2.28;;;22.50;99.90;;;-141.84;63.82;21076.13;5030551;28;20615;-75
2022/08/01 06:01:58;;;;;;;3.28;2.72;;;22.50;99.90;;;-141.84;63.29;21116.78;5030239;28;20271;-75
2022/08/01 06:04:26;;;;;;;2.78;2.20;;;22.50;99.90;;;-141.84;63.00;21106.63;5029523;28;20236;-76
2022/08/01 06:06:54;;;;;;;2.30;2.10;;;22.50;99.90;;;-141.84;62.60;21106.63;5030090;28;20781;-75
2022/08/01 06:09:23;;;;;;;2.50;2.30;;;22.50;99.90;;;-141.84;61.66;21183.88;5030046;28;20338;-74
2022/08/01 06:11:51;;;;;;;1.90;1.80;;;22.60;99.90;;;-141.84;62.21;21179.81;5037789;28;20210;-77
2022/08/01 06:14:20;;;;;;;2.40;2.20;;;22.60;99.90;;;-141.84;62.21;21153.41;5030855;28;20208;-75
2022/08/01 06:16:48;;;;;;;2.50;2.30;;;22.80;99.90;;;-141.84;62.04;21165.59;5029709;28;20222;-76
2022/08/01 06:19:16;;;;;;;2.30;2.10;;;22.80;99.90;;;-141.84;62.22;21208.28;5029681;28;20236;-75
2022/08/01 06:21:44;;;;;;;3.35;2.10;;;22.80;99.90;;;-141.84;61.81;21159.50;5030027;28;20743;-75
2022/08/01 06:24:12;;;;;;;2.40;2.20;;;22.90;99.90;;;-141.84;62.71;21155.44;5029718;28;20222;-76
2022/08/01 06:26:40;;;;;;;3.17;2.20;;;22.90;99.90;;;-141.84;62.72;21181.84;5029867;28;20248;-78
2022/08/01 06:29:08;;;;;;;2.60;2.03;;;22.90;99.90;;;-141.84;63.37;21129.00;5030513;28;20206;-81
2022/08/01 06:31:38;;;;;;;2.40;2.17;;;22.80;99.90;;;-141.84;63.99;21129.00;5029990;28;20232;-81
2022/08/01 06:34:06;;;;;;;2.22;2.03;;;22.70;99.90;;;-141.84;63.49;21126.97;5030193;28;20293;-81
2022/08/01 06:36:34;;;;;;;1.90;1.80;;;22.80;99.90;;;-141.84;62.08;21204.22;5030792;28;20222;-80
2022/08/01 06:39:02;;;;;;;1.63;1.52;;;22.80;99.90;;;-141.84;62.89;21139.16;5030336;28;20225;-79
2022/08/01 06:41:30;;;;;;;1.52;1.42;;;22.70;99.90;;;-141.84;62.51;21171.69;5031525;28;20236;-82
2022/08/01 06:44:02;;;;;;;2.00;1.77;;;22.80;99.90;;;-141.84;62.10;21183.88;5030002;28;20234;-80
2022/08/01 06:46:30;;;;;;;1.58;1.48;;;22.90;99.90;;;-141.84;61.88;21196.09;5030383;28;20256;-79
2022/08/01 06:49:01;;;;;;;1.77;1.67;;;22.90;99.90;;;-141.84;62.28;21159.50;5033487;28;20309;-80
2022/08/01 06:51:30;;;;;;;2.60;1.83;;;22.90;99.90;;;-141.84;62.37;21171.69;5034137;28;20648;-80
2022/08/01 06:53:58;;;;;;;1.60;1.50;;;22.90;99.90;;;-141.84;62.63;21141.19;5033987;28;20237;-81
2022/08/01 06:56:26;;;;;;;2.85;1.70;;;22.80;99.90;;;-141.84;62.54;21139.16;5034210;28;20232;-80
2022/08/01 06:58:56;;;;;;;1.77;1.67;;;22.80;99.90;;;-141.84;63.04;21153.41;5033432;28;20229;-79
2022/08/01 07:01:24;;;;;;;2.65;1.42;;;22.70;99.90;;;-141.84;62.84;21126.97;5033719;28;20226;-81
2022/08/01 07:03:52;;;;;;;1.55;1.45;;;22.80;99.90;;;-141.84;62.60;21122.91;5033489;28;20230;-80
2022/08/01 07:06:25;;;;;;;1.52;1.42;;;22.70;99.90;;;-141.84;62.16;21171.69;5033049;28;20397;-82
2022/08/01 07:08:54;;;;;;;1.83;1.70;;;22.80;99.90;;;-141.84;62.25;21157.47;5033236;28;20273;-81
2022/08/01 07:11:24;;;;;;;1.50;1.40;;;22.80;99.90;;;-141.84;62.72;21139.16;5037780;28;20408;-73
2022/08/01 07:13:52;;;;;;;1.50;1.40;;;22.80;99.90;;;-141.84;62.48;21169.66;5032967;28;20248;-76
2022/08/01 07:16:20;;;;;;;1.85;1.60;;;22.80;99.90;;;-141.84;62.51;21163.56;5032703;28;20253;-78
2022/08/01 07:18:48;;;;;;;2.47;1.58;;;22.80;99.90;;;-141.84;62.61;21171.69;5032450;28;20614;-75
2022/08/01 07:21:16;;;;;;;1.48;1.38;;;22.80;99.90;;;-141.84;61.88;21183.88;5031405;28;20230;-80
2022/08/01 07:24:08;;;;;;;2.38;1.40;;;22.90;99.90;;;-141.84;60.52;21248.94;5033557;28;20218;-80
2022/08/01 07:26:43;;;;;;;1.20;1.10;;;23.00;99.90;;;-141.84;60.71;21273.34;5013595;28;20592;-80
2022/08/01 07:29:22;;;;;;;1.35;1.10;;;23.10;99.90;;;-141.84;59.10;21358.75;5031909;28;20216;-74
2022/08/01 07:31:50;;;;;;;1.65;1.40;;;23.40;99.90;;;-141.84;58.28;21352.63;5031997;28;20721;-73
2022/08/01 07:34:18;;;;;;;3.25;1.30;;;23.60;99.90;;;-141.84;58.55;21405.50;5032581;28;20237;-73
2022/08/01 07:36:46;;;;;;;1.45;1.20;;;23.80;99.90;;;-141.84;58.94;21358.75;5032498;28;20656;-72
2022/08/01 07:39:16;;;;;;;1.40;1.17;;;23.60;99.90;;;-141.84;59.40;21324.19;5032815;28;20222;-73
2022/08/01 07:41:44;;;;;;;1.52;1.42;;;23.50;99.90;;;-141.84;60.47;21244.88;5032305;28;20749;-73
2022/08/01 07:44:32;;;;;;;3.15;1.70;;;23.30;99.90;;;-141.84;65.93;20986.69;5032874;28;20201;-73
2022/08/01 07:47:01;;;;;;;4.20;1.83;;;22.80;99.90;;;-141.84;70.76;20850.47;5012740;28;20258;-73
2022/08/01 07:49:29;;;;;;;2.53;1.60;;;22.40;99.90;;;-141.84;73.81;20765.09;5013938;28;20241;-85
2022/08/01 07:51:59;;;;;;;1.80;1.40;;;22.00;99.90;;;-141.84;75.02;20702.09;5013215;28;20260;-78
2022/08/01 07:54:33;;;;;;;3.08;1.50;;;21.70;99.90;;;-141.84;73.69;20722.41;5012299;28;20353;-76
2022/08/01 07:57:02;;;;;;;3.08;1.42;;;21.50;99.90;;;-141.84;75.34;20693.94;5011662;28;20241;-72
2022/08/01 07:59:31;;;;;;;1.65;1.33;;;21.40;99.90;;;-141.84;76.33;20659.38;5012110;28;20226;-77
2022/08/01 08:02:02;;;;;;;2.40;1.40;;;21.40;99.90;;;-141.84;75.20;20671.59;5033411;28;20224;-83
2022/08/01 08:04:35;;;;;;;6.35;1.50;;;21.40;99.90;;;-141.84;74.54;20657.34;5034169;28;20306;-82
2022/08/01 08:07:03;;;;;;;2.83;1.30;;;21.40;99.90;;;-141.84;74.18;20679.72;5035390;28;20751;-81
2022/08/01 08:09:34;;;;;;;3.22;1.38;;;21.50;99.90;;;-141.84;75.26;20740.69;5027947;28;20253;-81
2022/08/01 08:12:06;;;;;;;1.13;1.02;;;21.80;99.90;;;-141.84;72.78;20779.31;5013503;28;20254;-75
2022/08/01 08:14:38;;;;;;;2.08;1.00;;;22.00;99.90;;;-141.84;70.56;20860.66;5012493;28;20222;-74
2022/08/01 08:17:09;;;;;;;1.15;1.02;;;22.20;99.90;;;-141.84;70.92;20866.75;5012718;28;20188;-74
2022/08/01 08:19:40;;;;;;;1.55;1.30;;;22.30;99.90;;;-141.84;69.82;20858.59;5011842;28;20235;-74
2022/08/01 08:22:11;;;;;;;2.08;1.35;;;22.20;99.90;;;-141.84;70.25;20905.38;5011774;28;20561;-68
2022/08/01 08:24:41;;;;;;;1.45;1.33;;;22.40;99.90;;;-141.84;67.55;21009.03;5011773;28;20237;-67
2022/08/01 08:27:14;;;;;;;1.67;1.33;;;22.60;99.90;;;-141.84;66.36;21009.03;5011785;28;20269;-68
2022/08/01 08:29:42;;;;;;;1.17;1.00;;;22.70;99.90;;;-141.84;64.06;21135.09;5011897;28;20202;-67
2022/08/01 08:32:12;;;;;;;1.77;1.00;;;23.00;99.90;;;-141.84;61.56;21187.97;5011951;28;20294;-67
2022/08/01 08:34:40;;;;;;;1.17;1.10;;;23.10;99.90;;;-141.84;61.99;21183.88;5011754;28;20254;-73
2022/08/01 08:37:08;;;;;;;1.35;1.02;;;23.20;99.90;;;-141.84;61.15;21228.63;5011629;28;20222;-76
2022/08/01 08:39:37;;;;;;;0.90;0.90;;;23.30;99.90;;;-141.84;61.66;21236.75;5011931;28;20230;-76
2022/08/01 08:42:12;;;;;;;1.08;1.00;;;23.50;99.90;;;-141.84;61.26;21246.91;5011587;28;20329;-69
2022/08/01 08:44:43;;;;;;;1.33;1.23;;;23.30;99.90;;;-141.84;60.08;21287.56;5011709;28;20199;-73
2022/08/01 08:47:15;;;;;;;2.20;1.05;;;23.50;99.90;;;-141.84;58.84;21330.28;5011655;28;20715;-74
2022/08/01 08:49:49;;;;;;;1.73;1.10;;;23.60;99.90;;;-141.84;59.57;21364.84;5001960;28;20622;-75
2022/08/01 08:52:21;;;;;;;1.50;1.38;;;23.70;99.90;;;-141.84;57.85;21395.34;5011046;28;20226;-74
2022/08/01 08:54:52;;;;;;;2.10;1.30;;;23.70;99.90;;;-141.84;58.42;21415.66;5011366;28;20591;-76
2022/08/01 08:57:22;;;;;;;1.08;0.98;;;23.80;99.90;;;-141.84;58.66;21415.66;5003339;28;20246;-73
2022/08/01 08:59:53;;;;;;;1.73;1.05;;;23.80;99.90;;;-141.84;57.92;21474.63;5010891;28;20246;-73
2022/08/01 09:02:22;;;;;;;1.40;1.30;;;24.00;99.90;;;-141.84;57.23;21462.44;5011386;28;20734;-75
2022/08/01 09:04:51;;;;;;;1.23;1.08;;;24.20;99.90;;;-141.84;56.24;21525.47;5011072;28;20730;-76
2022/08/01 09:07:19;;;;;;;1.73;1.05;;;24.30;99.90;;;-141.84;55.28;21553.94;5011172;28;20253;-67
2022/08/01 09:09:49;;;;;;;0.82;0.80;;;24.30;99.90;;;-141.84;54.95;21541.72;5011171;28;20310;-70
2022/08/01 09:12:21;;;;;;;1.08;0.80;;;24.30;99.90;;;-141.84;56.73;21468.53;5010800;28;20226;-69
2022/08/01 09:14:53;;;;;;;1.35;0.80;;;24.00;99.90;;;-141.84;57.10;21372.97;5010826;28;20198;-69
2022/08/01 09:17:21;;;;;;;0.70;0.65;;;23.70;99.90;;;-141.84;58.23;21368.91;5011361;28;20191;-68
2022/08/01 09:19:52;;;;;;;0.68;0.65;;;23.60;99.90;;;-141.84;57.22;21358.75;5010778;28;20230;-73
2022/08/01 09:22:24;;;;;;;0.60;0.50;;;23.70;99.90;;;-141.84;55.84;21452.25;5010782;28;20714;-73
2022/08/01 09:25:01;;;;;;;1.30;0.45;;;23.70;99.90;;;-141.84;55.06;21488.88;5011102;28;20233;-68
2022/08/01 09:27:32;;;;;;;0.50;0.43;;;23.90;99.90;;;-141.84;53.70;21586.47;5010822;28;20248;-71
2022/08/01 09:30:12;;;;;;;0.65;0.55;;;24.20;99.90;;;-141.84;51.99;21763.34;5010980;28;20230;-73
2022/08/01 09:33:00;;;;;;;0.40;0.40;;;24.40;99.90;;;-141.84;52.47;21732.84;5010635;28;20191;-73
2022/08/01 09:35:31;;;;;;;0.50;0.50;;;24.70;99.90;;;-141.84;52.59;21706.44;5011682;28;20187;-78
2022/08/01 09:38:18;;;;;;;0.50;0.50;;;24.60;99.90;;;-141.84;52.34;21712.53;5030712;28;20221;-78
2022/08/01 09:40:49;;;;;;;0.60;0.60;;;24.60;99.90;;;-141.84;52.82;21639.31;5030232;28;20607;-68
2022/08/01 09:43:20;;;;;;;1.38;0.70;;;24.40;99.90;;;-141.84;52.71;21590.53;5030104;28;20230;-68
2022/08/01 09:45:49;;;;;;;1.65;1.10;;;24.30;99.90;;;-141.84;52.83;21635.25;5030438;28;20225;-68
2022/08/01 09:48:21;;;;;;;1.65;0.82;;;24.30;99.90;;;-141.84;52.13;21700.31;5029800;28;20234;-70
2022/08/01 09:50:57;;;;;;;0.75;0.75;;;24.30;99.90;;;-141.84;51.74;21726.75;5031822;28;20225;-74
2022/08/01 09:53:43;;;;;;;0.70;0.70;;;24.40;99.90;;;-141.84;50.05;21879.25;5032905;28;20273;-75
2022/08/01 09:56:18;;;;;;;0.80;0.80;;;24.70;99.90;;;-141.84;50.27;21907.72;5011628;28;20211;-73
2022/08/01 09:58:57;;;;;;;0.70;0.70;;;24.90;99.90;;;-141.84;51.72;21785.72;5031202;28;20234;-74
2022/08/01 10:01:42;;;;;;;0.88;0.88;;;24.80;99.90;;;-141.84;52.34;21714.56;5030873;28;20226;-74
2022/08/01 10:04:13;;;;;;;1.10;0.82;;;24.60;99.90;;;-141.84;52.30;21661.69;5030913;28;20292;-78
2022/08/01 10:06:45;;;;;;;1.92;0.90;;;24.40;99.90;;;-141.84;51.91;21751.16;5031763;28;20226;-78
2022/08/01 10:09:15;;;;;;;0.60;0.60;;;24.40;99.90;;;-141.84;52.52;21708.47;5031693;28;20236;-78
2022/08/01 10:11:44;;;;;;;1.13;0.65;;;24.60;99.90;;;-141.84;53.32;21669.81;5032005;28;20202;-79
2022/08/01 10:14:14;;;;;;;0.98;0.73;;;24.40;99.90;;;-141.84;52.65;21633.22;5028588;28;20202;-71
2022/08/01 10:16:48;;;;;;;0.98;0.65;;;24.40;99.90;;;-141.84;52.45;21612.88;5031032;28;20222;-70
2022/08/01 10:19:29;;;;;;;0.60;0.60;;;24.30;99.90;;;-141.84;50.82;21745.06;5031751;28;20218;-70
2022/08/01 10:21:59;;;;;;;0.90;0.90;;;24.50;99.90;;;-141.84;50.57;21785.72;5032036;28;20335;-72
2022/08/01 10:24:30;;;;;;;0.70;0.70;;;24.60;99.90;;;-141.84;49.68;21867.06;5035166;28;20737;-71